createdAt,value
2022-09-07T00:01:05.619Z,6.50
2022-09-07T00:03:33.717Z,6.22
2022-09-07T00:06:07.491Z,6.10
2022-09-07T00:08:35.750Z,5.93
2022-09-07T00:11:05.840Z,6.28
2022-09-07T00:13:38.275Z,6.38
2022-09-07T00:16:07.900Z,6.57
2022-09-07T00:18:36.094Z,6.18
2022-09-07T00:21:06.844Z,6.07
2022-09-07T00:23:37.216Z,6.55
2022-09-07T00:26:08.223Z,6.68
2022-09-07T00:28:38.154Z,6.57
2022-09-07T00:31:11.141Z,6.45
2022-09-07T00:33:39.332Z,6.97
2022-09-07T00:36:07.912Z,5.93
2022-09-07T00:38:36.202Z,6.78
2022-09-07T00:41:04.359Z,6.63
2022-09-07T00:43:34.861Z,6.70
2022-09-07T00:46:06.374Z,6.38
2022-09-07T00:48:39.093Z,6.82
2022-09-07T00:51:11.413Z,6.85
2022-09-07T00:53:43.015Z,6.80
2022-09-07T00:56:12.662Z,7.35
2022-09-07T00:58:44.493Z,7.38
2022-09-07T01:01:14.587Z,7.05
2022-09-07T01:03:48.639Z,7.72
2022-09-07T01:06:19.467Z,7.55
2022-09-07T01:08:50.751Z,8.00
2022-09-07T01:11:21.083Z,7.20
2022-09-07T01:13:50.815Z,7.35
2022-09-07T01:16:50.171Z,7.18
2022-09-07T01:19:46.593Z,7.40
2022-09-07T01:22:35.609Z,7.95
2022-09-07T01:25:10.336Z,7.40
2022-09-07T01:28:04.322Z,8.25
2022-09-07T01:30:37.381Z,7.50
2022-09-07T01:33:32.251Z,8.38
2022-09-07T01:36:11.417Z,8.13
2022-09-07T01:38:45.717Z,8.25
2022-09-07T01:41:21.382Z,8.95
2022-09-07T01:43:58.462Z,8.88
2022-09-07T01:46:29.893Z,8.50
2022-09-07T01:49:03.718Z,8.32
2022-09-07T01:51:35.391Z,8.90
2022-09-07T01:54:10.402Z,8.52
2022-09-07T01:56:42.645Z,8.85
2022-09-07T01:59:20.958Z,8.35
2022-09-07T02:01:55.467Z,8.50
2022-09-07T02:04:30.210Z,8.35
2022-09-07T02:07:05.711Z,9.05
2022-09-07T02:09:37.511Z,9.55
2022-09-07T02:12:12.090Z,9.60
2022-09-07T02:14:49.365Z,9.27
2022-09-07T02:17:25.917Z,9.05
2022-09-07T02:19:59.891Z,8.30
2022-09-07T02:22:32.974Z,9.07
2022-09-07T02:25:04.323Z,9.07
2022-09-07T02:27:41.474Z,9.85
2022-09-07T02:30:12.108Z,8.70
2022-09-07T02:32:40.110Z,8.15
2022-09-07T02:35:09.495Z,9.55
2022-09-07T02:37:39.382Z,9.40
2022-09-07T02:40:08.790Z,9.68
2022-09-07T02:42:37.853Z,9.35
2022-09-07T02:45:09.460Z,9.35
2022-09-07T02:47:55.175Z,9.93
2022-09-07T02:50:49.969Z,9.02
2022-09-07T02:53:36.324Z,9.20
2022-09-07T02:56:15.098Z,9.38
2022-09-07T02:58:51.062Z,9.55
2022-09-07T03:01:31.694Z,10.85
2022-09-07T03:04:11.088Z,9.40
2022-09-07T03:06:41.946Z,9.82
2022-09-07T03:09:14.516Z,10.45
2022-09-07T03:11:42.546Z,11.25
2022-09-07T03:14:16.336Z,10.00
2022-09-07T03:16:44.901Z,10.18
2022-09-07T03:19:14.300Z,9.85
2022-09-07T03:21:42.351Z,9.80
2022-09-07T03:24:11.043Z,11.07
2022-09-07T03:26:42.407Z,10.27
2022-09-07T03:29:10.566Z,8.98
2022-09-07T03:31:38.742Z,8.98
2022-09-07T03:34:07.257Z,9.98
2022-09-07T03:36:37.003Z,9.10
2022-09-07T03:39:05.247Z,9.10
2022-09-07T03:41:33.271Z,9.25
2022-09-07T03:44:04.954Z,9.38
2022-09-07T03:46:33.389Z,9.52
2022-09-07T03:49:01.617Z,9.15
2022-09-07T03:51:29.815Z,8.65
2022-09-07T03:53:59.863Z,7.95
2022-09-07T03:56:27.881Z,10.02
2022-09-07T03:58:56.804Z,8.88
2022-09-07T04:01:27.058Z,8.65
2022-09-07T04:04:02.148Z,8.00
2022-09-07T04:06:31.591Z,8.63
2022-09-07T04:09:04.579Z,8.45
2022-09-07T04:11:32.698Z,10.13
2022-09-07T04:14:01.036Z,9.63
2022-09-07T04:16:29.761Z,10.68
2022-09-07T04:18:59.226Z,9.60
2022-09-07T04:21:29.670Z,11.00
2022-09-07T04:23:57.903Z,10.73
2022-09-07T04:26:29.201Z,11.07
2022-09-07T04:28:57.467Z,10.13
2022-09-07T04:31:26.293Z,11.18
2022-09-07T04:33:55.744Z,10.90
2022-09-07T04:36:25.733Z,10.57
2022-09-07T04:38:59.457Z,10.63
2022-09-07T04:41:31.184Z,9.88
2022-09-07T04:44:01.057Z,10.27
2022-09-07T04:46:30.755Z,11.82
2022-09-07T04:49:00.773Z,10.93
2022-09-07T04:51:31.248Z,11.35
2022-09-07T04:54:00.974Z,11.60
2022-09-07T04:56:31.231Z,12.68
2022-09-07T04:58:59.973Z,12.88
2022-09-07T05:01:28.135Z,13.00
2022-09-07T05:03:56.301Z,13.45
2022-09-07T05:06:25.180Z,13.20
2022-09-07T05:08:54.738Z,13.75
2022-09-07T05:11:28.875Z,12.75
2022-09-07T05:14:00.593Z,13.13
2022-09-07T05:16:29.761Z,14.07
2022-09-07T05:18:59.778Z,14.02
2022-09-07T05:21:29.726Z,13.15
2022-09-07T05:23:59.477Z,12.88
2022-09-07T05:26:29.854Z,11.60
2022-09-07T05:31:50.965Z,12.93
2022-09-07T05:34:34.539Z,13.95
2022-09-07T05:37:03.374Z,14.18
2022-09-07T05:39:31.671Z,14.40
2022-09-07T05:41:59.750Z,16.00
2022-09-07T05:44:46.297Z,15.95
2022-09-07T05:47:14.510Z,15.05
2022-09-07T05:49:42.612Z,15.10
2022-09-07T05:52:10.924Z,15.73
2022-09-07T05:54:39.050Z,15.80
2022-09-07T05:57:08.131Z,15.88
2022-09-07T05:59:37.532Z,17.10
2022-09-07T06:02:06.674Z,16.60
2022-09-07T06:04:34.744Z,17.00
2022-09-07T06:07:21.036Z,17.77
2022-09-07T06:12:37.495Z,16.00
2022-09-07T06:15:08.196Z,15.88
2022-09-07T06:17:36.244Z,15.85
2022-09-07T06:20:05.070Z,14.85
2022-09-07T06:22:35.723Z,14.95
2022-09-07T06:25:03.881Z,14.70
2022-09-07T06:27:31.979Z,16.67
2022-09-07T06:29:59.956Z,16.63
2022-09-07T06:32:45.577Z,16.23
2022-09-07T06:35:14.622Z,16.58
2022-09-07T06:37:42.693Z,16.50
2022-09-07T06:40:11.953Z,16.60
2022-09-07T06:42:40.344Z,15.50
2022-09-07T06:45:11.270Z,16.75
2022-09-07T06:47:41.355Z,16.02
2022-09-07T06:50:10.624Z,16.25
2022-09-07T06:55:28.671Z,14.35
2022-09-07T06:57:56.986Z,16.88
2022-09-07T07:00:25.135Z,16.88
2022-09-07T07:02:54.656Z,14.95
2022-09-07T07:05:22.750Z,14.32
2022-09-07T07:07:50.792Z,15.02
2022-09-07T07:10:23.613Z,14.55
2022-09-07T07:12:53.143Z,14.68
2022-09-07T07:15:21.343Z,12.38
2022-09-07T07:17:58.039Z,14.15
2022-09-07T07:20:29.989Z,13.43
2022-09-07T07:22:58.041Z,12.82
2022-09-07T07:25:26.116Z,13.05
2022-09-07T07:27:54.422Z,11.02
2022-09-07T07:30:23.166Z,11.93
2022-09-07T07:32:51.275Z,11.40
2022-09-07T07:35:19.406Z,10.98
2022-09-07T07:37:49.333Z,10.77
2022-09-07T07:40:19.810Z,11.15
2022-09-07T07:42:51.599Z,10.73
2022-09-07T07:48:07.754Z,9.60
2022-09-07T07:50:35.811Z,10.23
2022-09-07T07:55:53.457Z,12.85
2022-09-07T07:58:22.044Z,9.88
2022-09-07T08:00:54.790Z,9.07
2022-09-07T08:03:25.341Z,9.10
2022-09-07T08:05:53.787Z,9.32
2022-09-07T08:08:24.634Z,9.52
2022-09-07T08:10:52.958Z,9.82
2022-09-07T08:13:21.458Z,9.25
2022-09-07T08:15:49.759Z,9.88
2022-09-07T08:18:18.487Z,8.77
2022-09-07T08:20:46.510Z,8.85
2022-09-07T08:23:15.262Z,7.95
2022-09-07T08:25:52.613Z,9.10
2022-09-07T08:28:20.894Z,8.90
2022-09-07T08:30:49.081Z,8.68
2022-09-07T08:33:17.504Z,8.90
2022-09-07T08:35:55.428Z,9.00
2022-09-07T08:38:23.503Z,9.55
2022-09-07T08:40:53.116Z,9.55
2022-09-07T08:43:32.161Z,8.00
2022-09-07T08:46:06.704Z,8.90
2022-09-07T08:48:36.205Z,8.38
2022-09-07T08:51:10.916Z,7.82
2022-09-07T08:53:47.382Z,8.02
2022-09-07T08:56:21.875Z,8.75
2022-09-07T08:58:53.182Z,10.13
2022-09-07T09:01:38.854Z,8.55
2022-09-07T09:04:16.538Z,8.93
2022-09-07T09:06:58.406Z,8.82
2022-09-07T09:09:35.163Z,8.60
2022-09-07T09:12:16.066Z,8.23
2022-09-07T09:14:56.563Z,8.40
2022-09-07T09:17:30.527Z,7.68
2022-09-07T09:20:11.105Z,6.35
2022-09-07T09:22:39.547Z,7.60
2022-09-07T09:25:18.055Z,7.30
2022-09-07T09:27:47.754Z,7.55
2022-09-07T09:30:17.977Z,7.43
2022-09-07T09:32:47.483Z,7.13
2022-09-07T09:35:24.456Z,6.53
2022-09-07T09:37:52.531Z,6.47
2022-09-07T09:40:24.816Z,6.30
2022-09-07T09:43:02.658Z,5.97
2022-09-07T09:46:12.107Z,6.93
2022-09-07T09:48:32.342Z,7.25
2022-09-07T09:53:58.141Z,6.03
2022-09-07T09:56:43.301Z,6.25
2022-09-07T10:05:28.094Z,6.47
2022-09-07T10:07:56.522Z,4.90
2022-09-07T10:10:24.823Z,5.63
2022-09-07T10:12:55.111Z,5.65
2022-09-07T10:15:41.341Z,6.20
2022-09-07T10:18:21.203Z,7.03
2022-09-07T10:20:49.800Z,6.07
2022-09-07T10:23:23.607Z,6.07
2022-09-07T10:25:51.877Z,5.82
2022-09-07T10:28:21.373Z,5.97
2022-09-07T10:31:15.233Z,6.00
2022-09-07T10:36:48.032Z,6.10
2022-09-07T10:39:21.473Z,5.68
2022-09-07T10:41:57.478Z,5.68
2022-09-07T10:44:42.733Z,5.40
2022-09-07T10:47:24.826Z,5.70
2022-09-07T10:52:54.730Z,5.38
2022-09-07T10:55:29.816Z,4.43
2022-09-07T10:58:13.211Z,4.43
2022-09-07T11:00:50.678Z,4.03
2022-09-07T11:03:32.686Z,3.92
2022-09-07T11:06:17.378Z,5.05
2022-09-07T11:09:16.532Z,4.93
2022-09-07T11:12:04.284Z,4.07
2022-09-07T11:14:36.984Z,3.63
2022-09-07T11:17:12.815Z,3.72
2022-09-07T11:19:48.249Z,3.58
2022-09-07T11:22:23.675Z,3.95
2022-09-07T11:27:49.412Z,3.50
2022-09-07T11:30:21.689Z,3.92
2022-09-07T11:32:56.844Z,4.10
2022-09-07T11:35:33.216Z,4.05
2022-09-07T11:38:07.136Z,4.07
2022-09-07T11:40:40.488Z,3.70
2022-09-07T11:43:17.335Z,3.90
2022-09-07T11:45:49.670Z,3.50
2022-09-07T11:48:22.406Z,3.63
2022-09-07T11:50:54.808Z,3.00
2022-09-07T11:53:27.953Z,3.38
2022-09-07T11:56:00.700Z,3.38
2022-09-07T12:01:26.227Z,2.50
2022-09-07T12:04:16.415Z,2.72
2022-09-07T12:07:10.136Z,2.60
2022-09-07T12:09:54.834Z,2.72
2022-09-07T12:12:39.022Z,3.67
2022-09-07T12:15:22.332Z,2.47
2022-09-07T12:18:03.201Z,3.17
2022-09-07T12:20:41.022Z,2.70
2022-09-07T12:23:27.388Z,2.47
2022-09-07T12:26:34.108Z,2.70
2022-09-07T12:29:18.595Z,2.25
2022-09-07T12:35:00.506Z,2.30
2022-09-07T12:37:40.247Z,1.95
2022-09-07T12:40:45.218Z,2.13
2022-09-07T12:43:36.181Z,2.40
2022-09-07T12:46:04.614Z,1.90
2022-09-07T12:48:46.674Z,1.77
2022-09-07T12:54:24.171Z,1.33
2022-09-07T13:00:02.687Z,1.50
2022-09-07T13:03:00.895Z,2.35
2022-09-07T13:05:46.431Z,1.17
2022-09-07T13:08:43.967Z,1.40
2022-09-07T13:11:31.553Z,1.23
2022-09-07T13:14:04.788Z,1.02
2022-09-07T13:20:03.223Z,1.27
2022-09-07T13:23:09.145Z,1.40
2022-09-07T13:25:49.433Z,1.08
2022-09-07T13:28:26.314Z,1.15
2022-09-07T13:31:06.135Z,1.08
2022-09-07T13:33:47.399Z,1.17
2022-09-07T13:36:21.918Z,1.38
2022-09-07T13:38:51.502Z,1.50
2022-09-07T13:41:23.628Z,1.20
2022-09-07T13:43:58.301Z,1.13
2022-09-07T13:46:47.701Z,1.20
2022-09-07T13:49:29.921Z,1.17
2022-09-07T13:52:06.386Z,1.20
2022-09-07T13:54:52.326Z,1.25
2022-09-07T13:57:27.393Z,1.20
2022-09-07T13:59:56.475Z,1.10
2022-09-07T14:02:28.989Z,1.40
2022-09-07T14:05:01.439Z,1.83
2022-09-07T14:07:30.688Z,1.52
2022-09-07T14:10:07.747Z,1.10
2022-09-07T14:12:43.517Z,1.20
2022-09-07T14:15:20.038Z,1.00
2022-09-07T14:17:49.275Z,1.00
2022-09-07T14:20:19.094Z,1.10
2022-09-07T14:22:50.738Z,1.42
2022-09-07T14:25:22.835Z,1.42
2022-09-07T14:27:51.131Z,1.33
2022-09-07T14:30:25.912Z,1.40
2022-09-07T14:32:55.789Z,1.33
2022-09-07T14:35:28.299Z,1.38
2022-09-07T14:38:03.395Z,1.70
2022-09-07T14:40:31.854Z,1.40
2022-09-07T14:42:59.838Z,1.48
2022-09-07T14:45:34.173Z,1.17
2022-09-07T14:48:13.255Z,1.30
2022-09-07T14:50:57.231Z,1.25
2022-09-07T14:53:37.177Z,2.30
2022-09-07T14:56:10.850Z,1.40
2022-09-07T14:58:38.875Z,19.35
2022-09-07T15:04:18.778Z,20.02
2022-09-07T15:07:03.789Z,49.80
2022-09-07T15:09:37.755Z,43.13
2022-09-07T15:12:18.297Z,4.13
2022-09-07T15:14:47.595Z,22.70
2022-09-07T15:20:41.174Z,4.88
2022-09-07T15:23:15.815Z,9.45
2022-09-07T15:25:50.272Z,3.05
2022-09-07T15:34:02.962Z,1.85
2022-09-07T15:36:32.076Z,2.45
2022-09-07T15:39:03.114Z,2.28
2022-09-07T15:41:31.916Z,1.30
2022-09-07T15:44:00.023Z,1.25
2022-09-07T15:46:28.395Z,1.15
2022-09-07T15:48:57.102Z,1.17
2022-09-07T15:54:16.596Z,1.55
2022-09-07T15:57:48.366Z,1.10
2022-09-07T15:59:32.818Z,1.48
2022-09-07T16:02:01.029Z,1.75
2022-09-07T16:04:30.087Z,1.85
2022-09-07T16:07:01.296Z,1.65
2022-09-07T16:09:30.927Z,1.33
2022-09-07T16:13:00.143Z,1.80
2022-09-07T16:14:47.064Z,1.45
2022-09-07T16:20:03.715Z,1.75
2022-09-07T16:25:21.176Z,2.28
2022-09-07T16:27:49.969Z,1.83
2022-09-07T16:30:18.055Z,2.05
2022-09-07T16:32:46.223Z,4.57
2022-09-07T16:35:14.304Z,5.97
2022-09-07T16:38:43.687Z,1.85
2022-09-07T16:40:31.714Z,1.83
2022-09-07T16:42:59.641Z,1.65
2022-09-07T16:48:15.706Z,1.83
2022-09-07T16:51:00.269Z,2.30
2022-09-07T16:53:30.500Z,2.38
2022-09-07T16:56:03.144Z,2.00
2022-09-07T16:58:35.779Z,1.80
2022-09-07T17:01:04.634Z,1.83
2022-09-07T17:03:32.815Z,1.60
2022-09-07T17:06:01.362Z,1.80
2022-09-07T17:08:29.804Z,1.90
2022-09-07T17:11:00.694Z,2.00
2022-09-07T17:13:31.698Z,1.83
2022-09-07T17:16:03.226Z,1.80
2022-09-07T17:21:20.538Z,1.73
2022-09-07T17:23:54.762Z,1.63
2022-09-07T17:26:27.038Z,2.00
2022-09-07T17:29:00.330Z,2.20
2022-09-07T17:34:19.471Z,2.15
2022-09-07T17:36:47.633Z,2.17
2022-09-07T17:39:18.013Z,2.35
2022-09-07T17:41:47.652Z,2.55
2022-09-07T17:44:17.799Z,1.95
2022-09-07T17:46:45.827Z,2.40
2022-09-07T17:49:16.388Z,2.20
2022-09-07T17:51:45.860Z,3.00
2022-09-07T17:54:17.370Z,2.63
2022-09-07T17:56:46.666Z,2.58
2022-09-07T18:02:04.345Z,3.67
2022-09-07T18:04:32.342Z,3.10
2022-09-07T18:07:00.313Z,3.50
2022-09-07T18:09:28.313Z,3.28
2022-09-07T18:11:56.265Z,3.15
2022-09-07T18:14:24.228Z,3.47
2022-09-07T18:16:52.301Z,3.38
2022-09-07T18:19:21.667Z,4.13
2022-09-07T18:21:50.631Z,4.38
2022-09-07T18:24:22.302Z,4.28
2022-09-07T18:26:52.662Z,3.90
2022-09-07T18:29:32.977Z,3.08
2022-09-07T18:32:04.581Z,3.53
2022-09-07T18:34:35.261Z,3.25
2022-09-07T18:37:03.476Z,3.20
2022-09-07T18:39:32.267Z,2.80
2022-09-07T18:42:00.315Z,2.83
2022-09-07T18:47:23.401Z,2.65
2022-09-07T18:49:57.461Z,3.22
2022-09-07T18:55:14.414Z,3.20
2022-09-07T18:57:42.362Z,3.50
2022-09-07T19:00:12.384Z,3.95
2022-09-07T19:02:40.439Z,4.80
2022-09-07T19:07:59.496Z,3.22
2022-09-07T19:10:27.660Z,3.90
2022-09-07T19:12:56.649Z,3.67
2022-09-07T19:15:24.623Z,3.30
2022-09-07T19:17:52.680Z,2.83
2022-09-07T19:20:22.007Z,2.58
2022-09-07T19:22:49.981Z,2.78
2022-09-07T19:25:19.268Z,2.63
2022-09-07T19:27:48.329Z,4.30
2022-09-07T19:30:17.356Z,3.10
2022-09-07T19:32:45.365Z,3.00
2022-09-07T19:35:13.344Z,2.95
2022-09-07T19:37:42.598Z,3.08
2022-09-07T19:40:14.665Z,3.45
2022-09-07T19:42:46.485Z,2.67
2022-09-07T19:45:15.462Z,3.33
2022-09-07T19:47:43.546Z,2.13
2022-09-07T19:50:11.467Z,3.20
2022-09-07T19:52:39.479Z,2.70
2022-09-07T19:55:10.053Z,3.00
2022-09-07T19:57:38.155Z,2.67
2022-09-07T20:00:07.334Z,2.75
2022-09-07T20:02:39.801Z,2.90
2022-09-07T20:05:08.303Z,2.72
2022-09-07T20:07:36.256Z,2.58
2022-09-07T20:10:04.514Z,2.97
2022-09-07T20:12:33.863Z,3.20
2022-09-07T20:15:01.783Z,3.03
2022-09-07T20:17:35.200Z,2.78
2022-09-07T20:20:04.023Z,3.80
2022-09-07T20:22:32.244Z,3.30
2022-09-07T20:25:00.122Z,2.92
2022-09-07T20:27:28.095Z,3.08
2022-09-07T20:29:57.402Z,3.85
2022-09-07T20:32:27.824Z,3.60
2022-09-07T20:34:56.008Z,3.83
2022-09-07T20:37:26.731Z,3.90
2022-09-07T20:39:55.075Z,3.92
2022-09-07T20:42:23.069Z,4.18
2022-09-07T20:44:51.097Z,4.43
2022-09-07T20:47:20.400Z,4.28
2022-09-07T20:49:48.446Z,4.57
2022-09-07T20:52:16.376Z,4.70
2022-09-07T20:54:44.520Z,4.63
2022-09-07T20:57:12.517Z,3.97
2022-09-07T20:59:40.518Z,4.50
2022-09-07T21:02:10.328Z,4.57
2022-09-07T21:04:39.670Z,4.38
2022-09-07T21:07:07.786Z,4.15
2022-09-07T21:09:35.738Z,4.82
2022-09-07T21:12:04.251Z,4.82
2022-09-07T21:14:32.232Z,4.38
2022-09-07T21:17:00.160Z,5.05
2022-09-07T21:19:28.114Z,4.63
2022-09-07T21:21:57.444Z,4.15
2022-09-07T21:24:25.755Z,4.18
2022-09-07T21:26:53.717Z,4.50
2022-09-07T21:29:23.994Z,4.50
2022-09-07T21:31:53.942Z,4.65
2022-09-07T21:34:22.957Z,5.03
2022-09-07T21:36:51.369Z,4.43
2022-09-07T21:39:20.840Z,5.68
2022-09-07T21:41:48.730Z,4.63
2022-09-07T21:44:17.232Z,5.00
2022-09-07T21:46:45.466Z,5.15
2022-09-07T21:49:13.520Z,5.20
2022-09-07T21:51:41.402Z,5.18
2022-09-07T21:54:09.735Z,5.32
2022-09-07T21:56:43.113Z,4.95
2022-09-07T21:59:13.791Z,6.38
2022-09-07T22:01:41.846Z,5.72
2022-09-07T22:04:09.956Z,5.13
2022-09-07T22:06:39.849Z,4.72
2022-09-07T22:09:08.246Z,5.72
2022-09-07T22:11:36.133Z,5.15
2022-09-07T22:14:06.830Z,5.85
2022-09-07T22:16:35.853Z,4.70
2022-09-07T22:19:03.967Z,5.22
2022-09-07T22:21:32.227Z,4.97
2022-09-07T22:24:01.563Z,4.70
2022-09-07T22:26:31.074Z,5.20
2022-09-07T22:28:59.551Z,4.90
2022-09-07T22:31:30.325Z,4.80
2022-09-07T22:33:59.153Z,4.00
2022-09-07T22:36:28.942Z,4.45
2022-09-07T22:38:59.470Z,3.92
2022-09-07T22:41:29.195Z,4.10
2022-09-07T22:43:57.521Z,4.07
2022-09-07T22:46:28.813Z,3.63
2022-09-07T22:48:58.197Z,3.58
2022-09-07T22:51:26.918Z,4.15
2022-09-07T22:53:55.835Z,3.90
2022-09-07T22:56:26.294Z,4.03
2022-09-07T22:58:55.906Z,3.45
2022-09-07T23:01:24.657Z,3.97
2022-09-07T23:03:54.558Z,4.03
2022-09-07T23:06:24.123Z,3.78
2022-09-07T23:08:53.092Z,4.70
2022-09-07T23:11:22.104Z,4.60
2022-09-07T23:13:51.502Z,4.40
2022-09-07T23:16:19.723Z,4.20
2022-09-07T23:18:48.240Z,3.60
2022-09-07T23:21:17.837Z,4.45
2022-09-07T23:23:51.158Z,3.72
2022-09-07T23:26:19.348Z,4.50
2022-09-07T23:28:47.473Z,4.05
2022-09-07T23:31:15.462Z,3.88
2022-09-07T23:33:43.496Z,4.50
2022-09-07T23:36:11.733Z,4.68
2022-09-07T23:38:40.976Z,4.30
2022-09-07T23:41:08.902Z,4.28
2022-09-07T23:43:37.164Z,4.28
2022-09-07T23:46:05.133Z,5.05
2022-09-07T23:48:33.175Z,4.88
2022-09-07T23:51:01.092Z,5.07
2022-09-07T23:53:29.065Z,4.22
2022-09-07T23:55:58.616Z,4.82
2022-09-07T23:58:26.533Z,4.82
